sensor_id;sensor_type;location;lat;lon;timestamp;pressure;altitude;pressure_sealevel;temperature;humidity
14120;BME280;7138;49.246;9.100;2023-11-21T00:01:25;98290.94;;;10.47;75.85
14120;BME280;7138;49.246;9.100;2023-11-21T00:03:51;98298.06;;;10.48;76.28
14120;BME280;7138;49.246;9.100;2023-11-21T00:06:20;98296.97;;;10.49;76.07
14120;BME280;7138;49.246;9.100;2023-11-21T00:08:46;98292.88;;;10.52;76.11
14120;BME280;7138;49.246;9.100;2023-11-21T00:11:12;98285.50;;;10.52;75.87
14120;BME280;7138;49.246;9.100;2023-11-21T00:13:37;98285.28;;;10.54;75.92
14120;BME280;7138;49.246;9.100;2023-11-21T00:16:06;98280.63;;;10.54;76.21
14120;BME280;7138;49.246;9.100;2023-11-21T00:18:33;98284.19;;;10.55;76.00
14120;BME280;7138;49.246;9.100;2023-11-21T00:20:59;98287.41;;;10.52;75.94
14120;BME280;7138;49.246;9.100;2023-11-21T00:23:24;98288.25;;;10.52;76.05
14120;BME280;7138;49.246;9.100;2023-11-21T00:25:51;98285.28;;;10.54;76.03
14120;BME280;7138;49.246;9.100;2023-11-21T00:28:16;98278.16;;;10.53;75.82
14120;BME280;7138;49.246;9.100;2023-11-21T00:30:42;98284.44;;;10.53;76.07
14120;BME280;7138;49.246;9.100;2023-11-21T00:33:09;98276.22;;;10.53;76.20
14120;BME280;7138;49.246;9.100;2023-11-21T00:35:38;98269.94;;;10.53;76.17
14120;BME280;7138;49.246;9.100;2023-11-21T00:38:04;98281.66;;;10.48;76.27
14120;BME280;7138;49.246;9.100;2023-11-21T00:40:30;98272.03;;;10.46;76.56
14120;BME280;7138;49.246;9.100;2023-11-21T00:42:56;98272.56;;;10.42;76.17
14120;BME280;7138;49.246;9.100;2023-11-21T00:45:22;98269.50;;;10.39;76.70
14120;BME280;7138;49.246;9.100;2023-11-21T00:47:48;98272.16;;;10.29;76.98
14120;BME280;7138;49.246;9.100;2023-11-21T00:50:15;98279.28;;;10.30;76.98
14120;BME280;7138;49.246;9.100;2023-11-21T00:52:41;98271.66;;;10.32;76.88
14120;BME280;7138;49.246;9.100;2023-11-21T00:55:08;98271.94;;;10.35;76.80
14120;BME280;7138;49.246;9.100;2023-11-21T00:57:34;98275.00;;;10.39;76.93
14120;BME280;7138;49.246;9.100;2023-11-21T01:00:00;98276.13;;;10.43;76.63
14120;BME280;7138;49.246;9.100;2023-11-21T01:02:26;98271.22;;;10.45;76.58
14120;BME280;7138;49.246;9.100;2023-11-21T01:04:52;98276.44;;;10.47;76.41
14120;BME280;7138;49.246;9.100;2023-11-21T01:07:19;98277.81;;;10.49;76.57
14120;BME280;7138;49.246;9.100;2023-11-21T01:09:46;98278.66;;;10.50;76.36
14120;BME280;7138;49.246;9.100;2023-11-21T01:12:12;98280.28;;;10.51;76.42
14120;BME280;7138;49.246;9.100;2023-11-21T01:14:37;98276.47;;;10.52;76.43
14120;BME280;7138;49.246;9.100;2023-11-21T01:17:04;98278.38;;;10.51;76.56
14120;BME280;7138;49.246;9.100;2023-11-21T01:19:31;98280.88;;;10.53;76.48
14120;BME280;7138;49.246;9.100;2023-11-21T01:21:56;98285.28;;;10.54;76.37
14120;BME280;7138;49.246;9.100;2023-11-21T01:24:25;98277.28;;;10.52;76.54
14120;BME280;7138;49.246;9.100;2023-11-21T01:26:50;98277.06;;;10.54;76.31
14120;BME280;7138;49.246;9.100;2023-11-21T01:29:16;98280.63;;;10.54;76.28
14120;BME280;7138;49.246;9.100;2023-11-21T01:31:42;98271.31;;;10.55;76.16
14120;BME280;7138;49.246;9.100;2023-11-21T01:34:08;98272.97;;;10.56;76.13
14120;BME280;7138;49.246;9.100;2023-11-21T01:36:34;98262.84;;;10.57;76.31
14120;BME280;7138;49.246;9.100;2023-11-21T01:39:01;98269.97;;;10.58;76.20
14120;BME280;7138;49.246;9.100;2023-11-21T01:41:28;98272.69;;;10.58;76.19
14120;BME280;7138;49.246;9.100;2023-11-21T01:43:54;98273.53;;;10.58;76.38
14120;BME280;7138;49.246;9.100;2023-11-21T01:46:20;98277.09;;;10.59;76.30
14120;BME280;7138;49.246;9.100;2023-11-21T01:48:47;98273.53;;;10.58;76.34
14120;BME280;7138;49.246;9.100;2023-11-21T01:51:14;98272.44;;;10.59;76.43
14120;BME280;7138;49.246;9.100;2023-11-21T01:53:40;98275.72;;;10.61;76.26
14120;BME280;7138;49.246;9.100;2023-11-21T01:56:08;98275.22;;;10.64;76.57
14120;BME280;7138;49.246;9.100;2023-11-21T01:58:37;98277.97;;;10.64;76.51
14120;BME280;7138;49.246;9.100;2023-11-21T02:01:02;98277.69;;;10.66;75.80
14120;BME280;7138;49.246;9.100;2023-11-21T02:03:28;98272.72;;;10.63;76.46
14120;BME280;7138;49.246;9.100;2023-11-21T02:05:54;98274.97;;;10.66;76.25
14120;BME280;7138;49.246;9.100;2023-11-21T02:08:20;98270.31;;;10.66;76.51
14120;BME280;7138;49.246;9.100;2023-11-21T02:10:46;98273.88;;;10.67;76.49
14120;BME280;7138;49.246;9.100;2023-11-21T02:13:13;98268.88;;;10.59;76.84
14120;BME280;7138;49.246;9.100;2023-11-21T02:15:40;98269.41;;;10.56;76.93
14120;BME280;7138;49.246;9.100;2023-11-21T02:18:07;98269.66;;;10.54;77.18
14120;BME280;7138;49.246;9.100;2023-11-21T02:20:33;98264.69;;;10.51;77.22
14120;BME280;7138;49.246;9.100;2023-11-21T02:23:01;98262.28;;;10.55;76.93
14120;BME280;7138;49.246;9.100;2023-11-21T02:25:29;98268.03;;;10.58;76.96
14120;BME280;7138;49.246;9.100;2023-11-21T02:27:56;98267.50;;;10.61;77.01
14120;BME280;7138;49.246;9.100;2023-11-21T02:30:23;98260.72;;;10.64;76.76
14120;BME280;7138;49.246;9.100;2023-11-21T02:32:50;98273.31;;;10.65;76.77
14120;BME280;7138;49.246;9.100;2023-11-21T02:35:18;98274.69;;;10.67;76.69
14120;BME280;7138;49.246;9.100;2023-11-21T02:37:46;98269.78;;;10.69;76.58
14120;BME280;7138;49.246;9.100;2023-11-21T02:40:14;98271.44;;;10.70;76.57
14120;BME280;7138;49.246;9.100;2023-11-21T02:42:43;98271.16;;;10.72;76.71
14120;BME280;7138;49.246;9.100;2023-11-21T02:45:10;98272.81;;;10.73;76.63
14120;BME280;7138;49.246;9.100;2023-11-21T02:47:38;98273.91;;;10.72;76.39
14120;BME280;7138;49.246;9.100;2023-11-21T02:50:06;98269.00;;;10.74;76.51
14120;BME280;7138;49.246;9.100;2023-11-21T02:52:34;98267.09;;;10.75;76.55
14120;BME280;7138;49.246;9.100;2023-11-21T02:55:00;98270.66;;;10.75;76.61
14120;BME280;7138;49.246;9.100;2023-11-21T02:57:28;98276.97;;;10.76;76.55
14120;BME280;7138;49.246;9.100;2023-11-21T02:59:54;98266.56;;;10.78;76.65
14120;BME280;7138;49.246;9.100;2023-11-21T03:02:20;98269.31;;;10.78;76.65
14120;BME280;7138;49.246;9.100;2023-11-21T03:04:46;98265.47;;;10.79;76.65
14120;BME280;7138;49.246;9.100;2023-11-21T03:07:14;98270.69;;;10.80;76.54
14120;BME280;7138;49.246;9.100;2023-11-21T03:09:40;98266.03;;;10.81;76.26
14120;BME280;7138;49.246;9.100;2023-11-21T03:12:06;98269.91;;;10.85;76.69
14120;BME280;7138;49.246;9.100;2023-11-21T03:14:33;98263.59;;;10.84;76.44
14120;BME280;7138;49.246;9.100;2023-11-21T03:16:59;98267.41;;;10.83;76.61
14120;BME280;7138;49.246;9.100;2023-11-21T03:19:25;98256.22;;;10.85;76.10
14120;BME280;7138;49.246;9.100;2023-11-21T03:21:51;98260.84;;;10.84;76.71
14120;BME280;7138;49.246;9.100;2023-11-21T03:24:19;98258.66;;;10.81;76.72
14120;BME280;7138;49.246;9.100;2023-11-21T03:26:45;98261.66;;;10.80;76.43
14120;BME280;7138;49.246;9.100;2023-11-21T03:29:12;98260.00;;;10.79;76.46
14120;BME280;7138;49.246;9.100;2023-11-21T03:31:40;98264.91;;;10.77;76.61
14120;BME280;7138;49.246;9.100;2023-11-21T03:34:06;98260.81;;;10.74;76.53
14120;BME280;7138;49.246;9.100;2023-11-21T03:36:32;98265.41;;;10.68;77.00
14120;BME280;7138;49.246;9.100;2023-11-21T03:38:58;98269.97;;;10.58;77.33
14120;BME280;7138;49.246;9.100;2023-11-21T03:41:23;98277.88;;;10.54;77.44
14120;BME280;7138;49.246;9.100;2023-11-21T03:43:50;98274.06;;;10.55;77.43
14120;BME280;7138;49.246;9.100;2023-11-21T03:46:16;98273.69;;;10.47;77.81
14120;BME280;7138;49.246;9.100;2023-11-21T03:48:43;98270.06;;;10.41;78.21
14120;BME280;7138;49.246;9.100;2023-11-21T03:51:09;98264.03;;;10.39;78.12
14120;BME280;7138;49.246;9.100;2023-11-21T03:53:34;98272.50;;;10.37;78.13
14120;BME280;7138;49.246;9.100;2023-11-21T03:56:03;98283.97;;;10.34;78.12
14120;BME280;7138;49.246;9.100;2023-11-21T03:58:29;98279.00;;;10.31;78.37
14120;BME280;7138;49.246;9.100;2023-11-21T04:00:55;98277.06;;;10.27;78.61
14120;BME280;7138;49.246;9.100;2023-11-21T04:03:21;98275.13;;;10.22;78.80
14120;BME280;7138;49.246;9.100;2023-11-21T04:05:48;98270.94;;;10.20;79.02
14120;BME280;7138;49.246;9.100;2023-11-21T04:08:14;98274.28;;;10.22;78.78
14120;BME280;7138;49.246;9.100;2023-11-21T04:10:40;98281.31;;;10.18;78.69
14120;BME280;7138;49.246;9.100;2023-11-21T04:13:07;98285.13;;;10.17;79.20
14120;BME280;7138;49.246;9.100;2023-11-21T04:15:33;98290.22;;;10.08;79.33
14120;BME280;7138;49.246;9.100;2023-11-21T04:17:59;98285.03;;;10.06;79.78
14120;BME280;7138;49.246;9.100;2023-11-21T04:20:25;98287.22;;;10.09;79.24
14120;BME280;7138;49.246;9.100;2023-11-21T04:22:52;98300.41;;;10.12;79.56
14120;BME280;7138;49.246;9.100;2023-11-21T04:25:18;98293.78;;;10.08;79.16
14120;BME280;7138;49.246;9.100;2023-11-21T04:27:45;98290.78;;;10.10;79.72
14120;BME280;7138;49.246;9.100;2023-11-21T04:30:12;98292.72;;;10.09;79.14
14120;BME280;7138;49.246;9.100;2023-11-21T04:32:38;98292.47;;;10.11;79.34
14120;BME280;7138;49.246;9.100;2023-11-21T04:35:10;98296.59;;;10.13;79.42
14120;BME280;7138;49.246;9.100;2023-11-21T04:37:36;98301.44;;;10.06;80.02
14120;BME280;7138;49.246;9.100;2023-11-21T04:40:05;98307.69;;;10.02;79.98
14120;BME280;7138;49.246;9.100;2023-11-21T04:42:35;98311.00;;;10.04;79.91
14120;BME280;7138;49.246;9.100;2023-11-21T04:45:02;98319.13;;;9.99;80.74
14120;BME280;7138;49.246;9.100;2023-11-21T04:47:33;98315.00;;;9.96;80.60
14120;BME280;7138;49.246;9.100;2023-11-21T04:49:59;98309.47;;;9.91;80.42
14120;BME280;7138;49.246;9.100;2023-11-21T04:52:24;98316.34;;;9.94;79.57
14120;BME280;7138;49.246;9.100;2023-11-21T04:54:50;98303.53;;;9.99;80.17
14120;BME280;7138;49.246;9.100;2023-11-21T04:57:18;98307.44;;;10.03;80.28
14120;BME280;7138;49.246;9.100;2023-11-21T04:59:44;98302.25;;;10.07;80.01
14120;BME280;7138;49.246;9.100;2023-11-21T05:02:10;98309.13;;;10.09;79.53
14120;BME280;7138;49.246;9.100;2023-11-21T05:04:36;98310.47;;;10.07;79.88
14120;BME280;7138;49.246;9.100;2023-11-21T05:07:02;98315.75;;;10.13;79.56
14120;BME280;7138;49.246;9.100;2023-11-21T05:09:28;98309.50;;;10.18;79.41
14120;BME280;7138;49.246;9.100;2023-11-21T05:11:57;98316.63;;;10.19;79.25
14120;BME280;7138;49.246;9.100;2023-11-21T05:14:24;98314.66;;;10.14;79.76
14120;BME280;7138;49.246;9.100;2023-11-21T05:16:50;98326.13;;;10.11;79.59
14120;BME280;7138;49.246;9.100;2023-11-21T05:19:17;98315.75;;;10.13;79.70
14120;BME280;7138;49.246;9.100;2023-11-21T05:21:43;98326.69;;;10.13;79.69
14120;BME280;7138;49.246;9.100;2023-11-21T05:24:09;98321.53;;;10.17;79.49
14120;BME280;7138;49.246;9.100;2023-11-21T05:26:35;98326.72;;;10.19;79.60
14120;BME280;7138;49.246;9.100;2023-11-21T05:29:01;98327.09;;;10.22;79.40
14120;BME280;7138;49.246;9.100;2023-11-21T05:31:28;98327.41;;;10.26;79.33
14120;BME280;7138;49.246;9.100;2023-11-21T05:33:54;98335.88;;;10.24;79.41
14120;BME280;7138;49.246;9.100;2023-11-21T05:36:20;98344.94;;;10.30;79.35
14120;BME280;7138;49.246;9.100;2023-11-21T05:38:45;98338.91;;;10.28;79.28
14120;BME280;7138;49.246;9.100;2023-11-21T05:41:11;98345.53;;;10.32;79.20
14120;BME280;7138;49.246;9.100;2023-11-21T05:43:39;98351.56;;;10.34;79.24
14120;BME280;7138;49.246;9.100;2023-11-21T05:46:05;98342.53;;;10.33;79.02
14120;BME280;7138;49.246;9.100;2023-11-21T05:48:34;98348.84;;;10.34;79.18
14120;BME280;7138;49.246;9.100;2023-11-21T05:51:03;98347.75;;;10.35;79.42
14120;BME280;7138;49.246;9.100;2023-11-21T05:53:30;98355.44;;;10.38;79.31
14120;BME280;7138;49.246;9.100;2023-11-21T05:55:56;98355.19;;;10.39;78.99
14120;BME280;7138;49.246;9.100;2023-11-21T05:58:22;98362.63;;;10.44;78.73
14120;BME280;7138;49.246;9.100;2023-11-21T06:00:48;98362.94;;;10.48;78.82
14120;BME280;7138;49.246;9.100;2023-11-21T06:03:14;98365.66;;;10.48;78.67
14120;BME280;7138;49.246;9.100;2023-11-21T06:05:41;98366.50;;;10.48;78.76
14120;BME280;7138;49.246;9.100;2023-11-21T06:08:07;98371.44;;;10.51;78.47
14120;BME280;7138;49.246;9.100;2023-11-21T06:10:33;98370.50;;;10.40;78.77
14120;BME280;7138;49.246;9.100;2023-11-21T06:12:59;98381.41;;;10.35;78.86
14120;BME280;7138;49.246;9.100;2023-11-21T06:15:25;98383.31;;;10.35;79.15
14120;BME280;7138;49.246;9.100;2023-11-21T06:17:52;98382.28;;;10.41;78.98
14120;BME280;7138;49.246;9.100;2023-11-21T06:20:19;98386.19;;;10.45;79.12
14120;BME280;7138;49.246;9.100;2023-11-21T06:22:48;98394.44;;;10.50;78.57
14120;BME280;7138;49.246;9.100;2023-11-21T06:25:16;98389.59;;;10.57;78.41
14120;BME280;7138;49.246;9.100;2023-11-21T06:27:44;98390.16;;;10.59;78.25
14120;BME280;7138;49.246;9.100;2023-11-21T06:30:11;98393.72;;;10.60;78.38
14120;BME280;7138;49.246;9.100;2023-11-21T06:32:39;98391.31;;;10.63;77.91
14120;BME280;7138;49.246;9.100;2023-11-21T06:35:07;98402.25;;;10.63;77.94
14120;BME280;7138;49.246;9.100;2023-11-21T06:37:34;98398.94;;;10.61;78.39
14120;BME280;7138;49.246;9.100;2023-11-21T06:40:01;98407.97;;;10.62;78.31
14120;BME280;7138;49.246;9.100;2023-11-21T06:42:29;98409.38;;;10.64;77.85
14120;BME280;7138;49.246;9.100;2023-11-21T06:44:56;98402.56;;;10.67;78.16
14120;BME280;7138;49.246;9.100;2023-11-21T06:47:23;98413.81;;;10.70;77.82
14120;BME280;7138;49.246;9.100;2023-11-21T06:49:53;98409.50;;;10.75;77.68
14120;BME280;7138;49.246;9.100;2023-11-21T06:52:19;98406.50;;;10.76;77.76
14120;BME280;7138;49.246;9.100;2023-11-21T06:54:45;98414.38;;;10.72;77.73
14120;BME280;7138;49.246;9.100;2023-11-21T06:57:14;98413.06;;;10.75;77.75
14120;BME280;7138;49.246;9.100;2023-11-21T06:59:40;98420.19;;;10.76;77.64
14120;BME280;7138;49.246;9.100;2023-11-21T07:02:06;98421.50;;;10.73;77.64
14120;BME280;7138;49.246;9.100;2023-11-21T07:04:32;98422.59;;;10.72;77.83
14120;BME280;7138;49.246;9.100;2023-11-21T07:06:58;98434.69;;;10.77;77.97
14120;BME280;7138;49.246;9.100;2023-11-21T07:09:24;98436.28;;;10.72;77.75
14120;BME280;7138;49.246;9.100;2023-11-21T07:11:51;98434.78;;;10.60;78.25
14120;BME280;7138;49.246;9.100;2023-11-21T07:14:18;98440.59;;;10.63;78.34
14120;BME280;7138;49.246;9.100;2023-11-21T07:16:45;98436.75;;;10.64;78.54
14120;BME280;7138;49.246;9.100;2023-11-21T07:19:11;98434.63;;;10.71;77.92
14120;BME280;7138;49.246;9.100;2023-11-21T07:21:39;98435.78;;;10.76;77.79
14120;BME280;7138;49.246;9.100;2023-11-21T07:24:07;98442.34;;;10.75;78.18
14120;BME280;7138;49.246;9.100;2023-11-21T07:26:34;98450.31;;;10.76;78.23
14120;BME280;7138;49.246;9.100;2023-11-21T07:29:00;98455.44;;;10.72;78.44
14120;BME280;7138;49.246;9.100;2023-11-21T07:31:28;98452.66;;;10.67;78.18
14120;BME280;7138;49.246;9.100;2023-11-21T07:33:55;98465.84;;;10.70;78.41
14120;BME280;7138;49.246;9.100;2023-11-21T07:36:24;98466.09;;;10.69;77.96
14120;BME280;7138;49.246;9.100;2023-11-21T07:38:51;98466.63;;;10.66;78.68
14120;BME280;7138;49.246;9.100;2023-11-21T07:41:17;98462.13;;;10.55;78.79
14120;BME280;7138;49.246;9.100;2023-11-21T07:43:44;98476.38;;;10.57;79.01
14120;BME280;7138;49.246;9.100;2023-11-21T07:46:11;98482.41;;;10.59;78.93
14120;BME280;7138;49.246;9.100;2023-11-21T07:48:42;98483.31;;;10.64;78.52
14120;BME280;7138;49.246;9.100;2023-11-21T07:51:09;98481.69;;;10.68;78.47
14120;BME280;7138;49.246;9.100;2023-11-21T07:53:36;98480.91;;;10.73;78.32
14120;BME280;7138;49.246;9.100;2023-11-21T07:56:04;98478.00;;;10.80;78.04
14120;BME280;7138;49.246;9.100;2023-11-21T07:58:30;98480.47;;;10.81;78.24
14120;BME280;7138;49.246;9.100;2023-11-21T08:00:57;98484.09;;;10.87;78.26
14120;BME280;7138;49.246;9.100;2023-11-21T08:03:22;98490.72;;;10.91;78.07
14120;BME280;7138;49.246;9.100;2023-11-21T08:05:50;98493.75;;;10.94;78.23
14120;BME280;7138;49.246;9.100;2023-11-21T08:08:15;98503.31;;;10.92;78.28
14120;BME280;7138;49.246;9.100;2023-11-21T08:10:44;98504.16;;;10.92;78.19
14120;BME280;7138;49.246;9.100;2023-11-21T08:13:11;98504.22;;;10.97;78.37
14120;BME280;7138;49.246;9.100;2023-11-21T08:15:40;98498.19;;;10.95;78.20
14120;BME280;7138;49.246;9.100;2023-11-21T08:18:06;98497.91;;;10.97;78.41
14120;BME280;7138;49.246;9.100;2023-11-21T08:20:33;98501.78;;;11.01;78.35
14120;BME280;7138;49.246;9.100;2023-11-21T08:23:01;98498.50;;;11.04;78.19
14120;BME280;7138;49.246;9.100;2023-11-21T08:25:28;98499.41;;;11.10;77.99
14120;BME280;7138;49.246;9.100;2023-11-21T08:27:56;98499.19;;;11.16;78.11
14120;BME280;7138;49.246;9.100;2023-11-21T08:30:21;98502.81;;;11.22;77.63
14120;BME280;7138;49.246;9.100;2023-11-21T08:32:49;98502.63;;;11.28;78.15
14120;BME280;7138;49.246;9.100;2023-11-21T08:35:17;98505.94;;;11.36;77.96
14120;BME280;7138;49.246;9.100;2023-11-21T08:37:43;98508.50;;;11.42;77.93
14120;BME280;7138;49.246;9.100;2023-11-21T08:40:11;98506.59;;;11.48;77.62
14120;BME280;7138;49.246;9.100;2023-11-21T08:42:42;98506.94;;;11.51;77.89
14120;BME280;7138;49.246;9.100;2023-11-21T08:45:09;98506.97;;;11.56;77.50
14120;BME280;7138;49.246;9.100;2023-11-21T08:47:35;98515.19;;;11.56;77.59
14120;BME280;7138;49.246;9.100;2023-11-21T08:50:02;98509.69;;;11.56;77.27
14120;BME280;7138;49.246;9.100;2023-11-21T08:52:28;98510.03;;;11.60;77.58
14120;BME280;7138;49.246;9.100;2023-11-21T08:54:54;98521.03;;;11.65;77.71
14120;BME280;7138;49.246;9.100;2023-11-21T08:57:26;98518.06;;;11.72;77.91
14120;BME280;7138;49.246;9.100;2023-11-21T08:59:52;98520.28;;;11.75;77.91
14120;BME280;7138;49.246;9.100;2023-11-21T09:02:25;98515.72;;;11.80;77.49
14120;BME280;7138;49.246;9.100;2023-11-21T09:04:51;98522.25;;;11.79;77.68
14120;BME280;7138;49.246;9.100;2023-11-21T09:07:18;98526.44;;;11.87;77.42
14120;BME280;7138;49.246;9.100;2023-11-21T09:09:45;98519.91;;;11.93;77.47
14120;BME280;7138;49.246;9.100;2023-11-21T09:12:11;98530.09;;;11.98;77.35
14120;BME280;7138;49.246;9.100;2023-11-21T09:14:39;98535.88;;;12.01;77.01
14120;BME280;7138;49.246;9.100;2023-11-21T09:17:05;98537.00;;;12.05;77.52
14120;BME280;7138;49.246;9.100;2023-11-21T09:19:36;98542.53;;;12.10;77.50
14120;BME280;7138;49.246;9.100;2023-11-21T09:22:02;98546.69;;;12.13;76.86
14120;BME280;7138;49.246;9.100;2023-11-21T09:24:28;98548.31;;;12.14;76.26
14120;BME280;7138;49.246;9.100;2023-11-21T09:26:54;98547.22;;;12.15;76.13
14120;BME280;7138;49.246;9.100;2023-11-21T09:29:20;98554.09;;;12.18;76.21
14120;BME280;7138;49.246;9.100;2023-11-21T09:31:47;98551.66;;;12.21;76.13
14120;BME280;7138;49.246;9.100;2023-11-21T09:34:13;98559.31;;;12.19;75.63
14120;BME280;7138;49.246;9.100;2023-11-21T09:36:39;98569.75;;;12.17;75.54
14120;BME280;7138;49.246;9.100;2023-11-21T09:39:05;98573.84;;;12.14;75.29
14120;BME280;7138;49.246;9.100;2023-11-21T09:41:43;98576.53;;;12.09;75.69
14120;BME280;7138;49.246;9.100;2023-11-21T09:44:14;98579.03;;;12.11;76.04
14120;BME280;7138;49.246;9.100;2023-11-21T09:46:44;98576.53;;;12.04;75.06
14120;BME280;7138;49.246;9.100;2023-11-21T09:49:14;98569.59;;;11.97;75.43
14120;BME280;7138;49.246;9.100;2023-11-21T09:51:43;98573.44;;;11.96;76.01
14120;BME280;7138;49.246;9.100;2023-11-21T09:54:10;98576.47;;;11.99;75.73
14120;BME280;7138;49.246;9.100;2023-11-21T09:56:37;98581.59;;;11.91;75.40
14120;BME280;7138;49.246;9.100;2023-11-21T09:59:05;98586.03;;;11.92;75.76
14120;BME280;7138;49.246;9.100;2023-11-21T10:01:36;98590.91;;;11.84;76.37
14120;BME280;7138;49.246;9.100;2023-11-21T10:04:03;98592.72;;;11.79;76.46
14120;BME280;7138;49.246;9.100;2023-11-21T10:09:21;98583.66;;;11.78;76.98
14120;BME280;7138;49.246;9.100;2023-11-21T10:11:50;98582.00;;;11.77;76.56
14120;BME280;7138;49.246;9.100;2023-11-21T10:14:21;98587.22;;;11.74;75.12
14120;BME280;7138;49.246;9.100;2023-11-21T10:16:51;98589.88;;;11.69;76.00
14120;BME280;7138;49.246;9.100;2023-11-21T10:19:19;98589.16;;;11.78;76.45
14120;BME280;7138;49.246;9.100;2023-11-21T10:21:46;98587.59;;;11.82;75.81
14120;BME280;7138;49.246;9.100;2023-11-21T10:24:12;98597.78;;;11.87;76.16
14120;BME280;7138;49.246;9.100;2023-11-21T10:26:40;98589.53;;;11.87;75.90
14120;BME280;7138;49.246;9.100;2023-11-21T10:29:07;98592.84;;;11.89;76.15
14120;BME280;7138;49.246;9.100;2023-11-21T10:31:33;98585.19;;;11.91;76.15
14120;BME280;7138;49.246;9.100;2023-11-21T10:34:14;98587.94;;;11.91;75.55
14120;BME280;7138;49.246;9.100;2023-11-21T10:36:40;98592.00;;;11.83;76.05
14120;BME280;7138;49.246;9.100;2023-11-21T10:39:07;98595.81;;;11.82;76.06
14120;BME280;7138;49.246;9.100;2023-11-21T10:41:33;98599.88;;;11.80;76.50
14120;BME280;7138;49.246;9.100;2023-11-21T10:44:02;98595.97;;;11.71;76.18
14120;BME280;7138;49.246;9.100;2023-11-21T10:46:35;98599.25;;;11.73;76.40
14120;BME280;7138;49.246;9.100;2023-11-21T10:49:00;98601.75;;;11.74;76.29
14120;BME280;7138;49.246;9.100;2023-11-21T10:51:27;98605.50;;;11.68;76.25
14120;BME280;7138;49.246;9.100;2023-11-21T10:53:54;98603.09;;;11.72;76.55
14120;BME280;7138;49.246;9.100;2023-11-21T10:56:23;98608.06;;;11.75;76.86
14120;BME280;7138;49.246;9.100;2023-11-21T10:58:50;98609.97;;;11.74;75.79
14120;BME280;7138;49.246;9.100;2023-11-21T11:01:23;98617.63;;;11.72;76.44
14120;BME280;7138;49.246;9.100;2023-11-21T11:03:53;98619.09;;;11.80;77.04
14120;BME280;7138;49.246;9.100;2023-11-21T11:06:21;98612.31;;;11.87;77.26
14120;BME280;7138;49.246;9.100;2023-11-21T11:08:49;98616.78;;;11.94;76.57
14120;BME280;7138;49.246;9.100;2023-11-21T11:11:15;98620.25;;;11.84;76.31
14120;BME280;7138;49.246;9.100;2023-11-21T11:13:43;98615.28;;;11.81;75.54
14120;BME280;7138;49.246;9.100;2023-11-21T11:16:13;98621.91;;;11.85;76.17
14120;BME280;7138;49.246;9.100;2023-11-21T11:18:44;98625.47;;;11.85;76.02
14120;BME280;7138;49.246;9.100;2023-11-21T11:21:26;98624.19;;;11.93;76.69
14120;BME280;7138;49.246;9.100;2023-11-21T11:24:21;98617.81;;;11.87;75.30
14120;BME280;7138;49.246;9.100;2023-11-21T11:27:02;98620.81;;;11.86;76.18
14120;BME280;7138;49.246;9.100;2023-11-21T11:29:43;98624.94;;;11.88;76.48
14120;BME280;7138;49.246;9.100;2023-11-21T11:32:22;98625.00;;;11.94;76.15
14120;BME280;7138;49.246;9.100;2023-11-21T11:35:04;98621.72;;;11.97;76.52
14120;BME280;7138;49.246;9.100;2023-11-21T11:37:33;98617.13;;;12.02;76.40
14120;BME280;7138;49.246;9.100;2023-11-21T11:40:00;98616.06;;;12.08;76.46
14120;BME280;7138;49.246;9.100;2023-11-21T11:42:27;98621.34;;;12.15;75.84
14120;BME280;7138;49.246;9.100;2023-11-21T11:44:53;98614.50;;;12.23;75.00
14120;BME280;7138;49.246;9.100;2023-11-21T11:47:23;98617.34;;;12.33;75.78
14120;BME280;7138;49.246;9.100;2023-11-21T11:50:05;98626.47;;;12.43;75.52
14120;BME280;7138;49.246;9.100;2023-11-21T11:52:47;98627.13;;;12.56;75.35
14120;BME280;7138;49.246;9.100;2023-11-21T11:55:16;98626.09;;;12.67;76.94
14120;BME280;7138;49.246;9.100;2023-11-21T11:57:46;98628.09;;;12.82;75.79
14120;BME280;7138;49.246;9.100;2023-11-21T12:00:16;98625.69;;;12.90;73.96
14120;BME280;7138;49.246;9.100;2023-11-21T12:02:46;98628.19;;;13.02;74.44
14120;BME280;7138;49.246;9.100;2023-11-21T12:05:16;98624.13;;;13.15;75.10
14120;BME280;7138;49.246;9.100;2023-11-21T12:07:49;98629.44;;;13.26;75.06
14120;BME280;7138;49.246;9.100;2023-11-21T12:10:19;98626.97;;;13.30;73.63
14120;BME280;7138;49.246;9.100;2023-11-21T12:12:47;98623.38;;;13.24;72.19
14120;BME280;7138;49.246;9.100;2023-11-21T12:15:13;98626.03;;;13.09;71.93
14120;BME280;7138;49.246;9.100;2023-11-21T12:17:41;98633.09;;;12.95;73.01
14120;BME280;7138;49.246;9.100;2023-11-21T12:20:10;98627.53;;;12.80;72.43
14120;BME280;7138;49.246;9.100;2023-11-21T12:22:48;98641.22;;;12.74;73.07
14120;BME280;7138;49.246;9.100;2023-11-21T12:25:15;98635.75;;;12.74;73.26
14120;BME280;7138;49.246;9.100;2023-11-21T12:27:43;98651.09;;;12.70;73.53
14120;BME280;7138;49.246;9.100;2023-11-21T12:30:12;98645.28;;;12.62;73.32
14120;BME280;7138;49.246;9.100;2023-11-21T12:32:43;98652.97;;;12.60;73.27
14120;BME280;7138;49.246;9.100;2023-11-21T12:35:10;98651.03;;;12.60;73.20
14120;BME280;7138;49.246;9.100;2023-11-21T12:37:42;98655.28;;;12.36;71.53
14120;BME280;7138;49.246;9.100;2023-11-21T12:40:11;98652.19;;;12.32;72.34
14120;BME280;7138;49.246;9.100;2023-11-21T12:42:39;98657.13;;;12.30;73.31
14120;BME280;7138;49.246;9.100;2023-11-21T12:45:09;98654.94;;;12.32;73.33
14120;BME280;7138;49.246;9.100;2023-11-21T12:47:42;98661.53;;;12.31;73.11
14120;BME280;7138;49.246;9.100;2023-11-21T12:50:09;98661.25;;;12.33;73.04
14120;BME280;7138;49.246;9.100;2023-11-21T12:52:45;98669.47;;;12.28;72.39
14120;BME280;7138;49.246;9.100;2023-11-21T12:55:18;98674.97;;;12.28;73.22
14120;BME280;7138;49.246;9.100;2023-11-21T12:57:48;98672.44;;;12.21;72.32
14120;BME280;7138;49.246;9.100;2023-11-21T13:00:16;98669.91;;;12.14;72.43
14120;BME280;7138;49.246;9.100;2023-11-21T13:02:54;98669.28;;;12.07;72.10
14120;BME280;7138;49.246;9.100;2023-11-21T13:05:30;98662.09;;;12.01;72.23
14120;BME280;7138;49.246;9.100;2023-11-21T13:07:59;98679.97;;;12.04;72.52
14120;BME280;7138;49.246;9.100;2023-11-21T13:10:31;98678.88;;;12.05;72.56
14120;BME280;7138;49.246;9.100;2023-11-21T13:12:58;98680.53;;;12.06;72.79
14120;BME280;7138;49.246;9.100;2023-11-21T13:15:24;98682.66;;;11.99;72.57